Gatesville Municipal Airport


Codes: KGOP/
Name: Gatesville Municipal Airport
City: Gatesville
Country: United States
Elevation: 905 ft.

Photos at Gatesville Municipal Airport


   Photos courtesy of SpottingLog. You can add your own sightings and photos by signing up for a free trial today.



No photos found.

Weather at Gatesville Municipal Airport


Time (UTC)DescriptionTempratureWindCloud coverageVisibilityPressureHumidity
15-Apr-2024 18:00Overcast Clouds22°C18 mph, S100%10000m1011hPa85%
15-Apr-2024 21:00Overcast Clouds24°C20 mph, S100%10000m1009hPa75%
16-Apr-2024 00:00Overcast Clouds24°C16 mph, SE100%10000m1007hPa75%
16-Apr-2024 03:00Overcast Clouds22°C16 mph, SE100%10000m1010hPa83%
16-Apr-2024 06:00Overcast Clouds21°C22 mph, SE100%10000m1007hPa89%
16-Apr-2024 09:00Overcast Clouds21°C18 mph, SW95%10000m1009hPa84%
16-Apr-2024 12:00Overcast Clouds21°C16 mph, S96%10000m1009hPa84%
16-Apr-2024 15:00Overcast Clouds24°C16 mph, SW100%10000m1010hPa76%
16-Apr-2024 18:00Overcast Clouds29°C11 mph, SW100%10000m1009hPa34%
16-Apr-2024 21:00Overcast Clouds31°C11 mph, W100%10000m1007hPa16%
17-Apr-2024 00:00Overcast Clouds27°C7 mph, SE100%10000m1007hPa33%
17-Apr-2024 03:00Overcast Clouds23°C11 mph, S100%10000m1009hPa87%
17-Apr-2024 06:00Overcast Clouds22°C11 mph, S100%10000m1010hPa92%
17-Apr-2024 09:00Overcast Clouds21°C11 mph, S100%10000m1010hPa94%
17-Apr-2024 12:00Overcast Clouds21°C9 mph, SW100%10000m1011hPa93%
17-Apr-2024 15:00Overcast Clouds25°C9 mph, SW100%10000m1012hPa73%
17-Apr-2024 18:00Overcast Clouds30°C2 mph, SE100%10000m1011hPa47%
17-Apr-2024 21:00Overcast Clouds31°C11 mph, SE100%10000m1010hPa44%
18-Apr-2024 00:00Overcast Clouds27°C9 mph, SE100%10000m1010hPa66%
18-Apr-2024 03:00Overcast Clouds24°C11 mph, SE100%10000m1012hPa75%
18-Apr-2024 06:00Overcast Clouds23°C9 mph, S100%10000m1013hPa79%
18-Apr-2024 09:00Overcast Clouds21°C11 mph, S99%10000m1011hPa87%
18-Apr-2024 12:00Broken Clouds20°C7 mph, S74%10000m1011hPa96%
18-Apr-2024 15:00Scattered Clouds26°C16 mph, SW43%10000m1013hPa66%
18-Apr-2024 18:00Broken Clouds32°C16 mph, S51%10000m1011hPa44%
18-Apr-2024 21:00Clear Sky34°C18 mph, S1%10000m1008hPa39%
19-Apr-2024 00:00Moderate Rain20°C20 mph, W30%577m1011hPa82%
19-Apr-2024 03:00Moderate Rain20°C13 mph, S100%10000m1012hPa88%
19-Apr-2024 06:00Light Rain21°C4 mph, S100%10000m1012hPa80%
19-Apr-2024 09:00Light Rain19°C11 mph, NE100%10000m1013hPa88%
19-Apr-2024 12:00Overcast Clouds15°C11 mph, N97%10000m1016hPa90%
19-Apr-2024 15:00Overcast Clouds17°C16 mph, N97%10000m1018hPa76%
19-Apr-2024 18:00Broken Clouds22°C11 mph, NE75%10000m1017hPa64%
19-Apr-2024 21:00Scattered Clouds25°C9 mph, NE48%10000m1015hPa57%
20-Apr-2024 00:00Broken Clouds22°C11 mph, NE66%10000m1015hPa68%
20-Apr-2024 03:00Overcast Clouds20°C11 mph, NE100%10000m1016hPa70%
20-Apr-2024 06:00Light Rain19°C7 mph, NE100%10000m1017hPa81%
20-Apr-2024 09:00Light Rain18°C11 mph, NE100%10000m1016hPa96%
20-Apr-2024 12:00Light Rain17°C9 mph, NE100%3551m1016hPa98%
20-Apr-2024 15:00Overcast Clouds17°C11 mph, N100%0m1018hPa97%